sensor_id;sensor_type;location;lat;lon;timestamp;pressure;altitude;pressure_sealevel;temperature;humidity
54465;BME280;40374;49.480;20.016;2023-04-23T00:01:03;94766.28;;;4.06;100.00
54465;BME280;40374;49.480;20.016;2023-04-23T00:04:14;94763.84;;;4.05;100.00
54465;BME280;40374;49.480;20.016;2023-04-23T00:07:51;94757.72;;;4.04;100.00
54465;BME280;40374;49.480;20.016;2023-04-23T00:10:36;94735.34;;;3.83;100.00
54465;BME280;40374;49.480;20.016;2023-04-23T00:13:27;94748.41;;;3.85;100.00
54465;BME280;40374;49.480;20.016;2023-04-23T00:16:34;94743.56;;;3.82;100.00
54465;BME280;40374;49.480;20.016;2023-04-23T00:19:24;94749.22;;;3.69;100.00
54465;BME280;40374;49.480;20.016;2023-04-23T00:21:54;94752.94;;;3.68;100.00
54465;BME280;40374;49.480;20.016;2023-04-23T00:33:34;94756.38;;;3.51;100.00
54465;BME280;40374;49.480;20.016;2023-04-23T00:37:22;94750.78;;;3.53;100.00
54465;BME280;40374;49.480;20.016;2023-04-23T00:41:00;94716.94;;;3.14;100.00
54465;BME280;40374;49.480;20.016;2023-04-23T00:44:21;94755.94;;;3.25;100.00
54465;BME280;40374;49.480;20.016;2023-04-23T00:46:50;94742.03;;;3.07;100.00
54465;BME280;40374;49.480;20.016;2023-04-23T00:49:19;94742.03;;;3.07;100.00
54465;BME280;40374;49.480;20.016;2023-04-23T00:51:51;94733.81;;;3.08;100.00
54465;BME280;40374;49.480;20.016;2023-04-23T00:54:23;94748.06;;;3.02;100.00
54465;BME280;40374;49.480;20.016;2023-04-23T00:56:54;94733.31;;;2.94;100.00
54465;BME280;40374;49.480;20.016;2023-04-23T00:59:27;94743.81;;;3.01;100.00
54465;BME280;40374;49.480;20.016;2023-04-23T01:02:24;94742.16;;;3.00;100.00
54465;BME280;40374;49.480;20.016;2023-04-23T01:05:49;94748.78;;;2.97;100.00
54465;BME280;40374;49.480;20.016;2023-04-23T01:09:44;94727.66;;;2.91;100.00
54465;BME280;40374;49.480;20.016;2023-04-23T01:18:13;94742.75;;;2.73;100.00
54465;BME280;40374;49.480;20.016;2023-04-23T01:29:12;94754.69;;;2.59;100.00
54465;BME280;40374;49.480;20.016;2023-04-23T01:33:02;94734.19;;;2.31;100.00
54465;BME280;40374;49.480;20.016;2023-04-23T01:36:38;94746.56;;;2.25;100.00
54465;BME280;40374;49.480;20.016;2023-04-23T01:39:08;94752.22;;;2.17;100.00
54465;BME280;40374;49.480;20.016;2023-04-23T01:41:36;94749.56;;;2.05;100.00
54465;BME280;40374;49.480;20.016;2023-04-23T01:44:04;94749.91;;;2.09;100.00
54465;BME280;40374;49.480;20.016;2023-04-23T01:46:40;94757.63;;;2.10;100.00
54465;BME280;40374;49.480;20.016;2023-04-23T01:49:13;94750.69;;;1.97;100.00
54465;BME280;40374;49.480;20.016;2023-04-23T01:52:02;94771.56;;;2.06;100.00
54465;BME280;40374;49.480;20.016;2023-04-23T01:54:39;94756.13;;;1.91;100.00
54465;BME280;40374;49.480;20.016;2023-04-23T01:57:45;94767.31;;;1.93;100.00
54465;BME280;40374;49.480;20.016;2023-04-23T02:00:19;94770.53;;;1.95;100.00
54465;BME280;40374;49.480;20.016;2023-04-23T02:02:50;94757.50;;;1.81;100.00
54465;BME280;40374;49.480;20.016;2023-04-23T02:05:28;94763.16;;;1.85;100.00
54465;BME280;40374;49.480;20.016;2023-04-23T02:08:02;94750.25;;;1.77;100.00
54465;BME280;40374;49.480;20.016;2023-04-23T02:10:33;94754.84;;;1.70;100.00
54465;BME280;40374;49.480;20.016;2023-04-23T02:13:02;94776.88;;;1.82;100.00
54465;BME280;40374;49.480;20.016;2023-04-23T02:15:36;94764.53;;;1.76;100.00
54465;BME280;40374;49.480;20.016;2023-04-23T02:18:06;94738.00;;;1.52;100.00
54465;BME280;40374;49.480;20.016;2023-04-23T02:20:34;94736.84;;;1.48;100.00
54465;BME280;40374;49.480;20.016;2023-04-23T02:23:14;94778.13;;;1.68;100.00
54465;BME280;40374;49.480;20.016;2023-04-23T02:25:41;94758.19;;;1.65;100.00
54465;BME280;40374;49.480;20.016;2023-04-23T02:28:12;94764.88;;;1.68;100.00
54465;BME280;40374;49.480;20.016;2023-04-23T02:34:31;94765.47;;;1.81;100.00
54465;BME280;40374;49.480;20.016;2023-04-23T02:38:38;94743.31;;;1.76;100.00
54465;BME280;40374;49.480;20.016;2023-04-23T02:47:01;94761.66;;;1.77;100.00
54465;BME280;40374;49.480;20.016;2023-04-23T02:49:33;94767.78;;;1.90;100.00
54465;BME280;40374;49.480;20.016;2023-04-23T02:52:07;94773.31;;;1.88;100.00
54465;BME280;40374;49.480;20.016;2023-04-23T02:54:46;94754.16;;;1.86;100.00
54465;BME280;40374;49.480;20.016;2023-04-23T02:57:21;94763.16;;;1.85;100.00
54465;BME280;40374;49.480;20.016;2023-04-23T03:00:12;94748.50;;;1.82;100.00
54465;BME280;40374;49.480;20.016;2023-04-23T03:03:03;94763.25;;;1.78;100.00
54465;BME280;40374;49.480;20.016;2023-04-23T03:05:57;94733.50;;;1.53;100.00
54465;BME280;40374;49.480;20.016;2023-04-23T03:08:28;94754.03;;;1.69;100.00
54465;BME280;40374;49.480;20.016;2023-04-23T03:10:57;94759.69;;;1.73;100.00
54465;BME280;40374;49.480;20.016;2023-04-23T03:13:28;94745.03;;;1.58;100.00
54465;BME280;40374;49.480;20.016;2023-04-23T03:16:00;94769.59;;;1.66;100.00
54465;BME280;40374;49.480;20.016;2023-04-23T03:18:35;94760.81;;;1.53;100.00
54465;BME280;40374;49.480;20.016;2023-04-23T03:21:04;94753.69;;;1.54;100.00
54465;BME280;40374;49.480;20.016;2023-04-23T03:23:37;94742.38;;;1.47;100.00
54465;BME280;40374;49.480;20.016;2023-04-23T03:26:06;94763.47;;;1.53;100.00
54465;BME280;40374;49.480;20.016;2023-04-23T03:28:36;94749.72;;;1.45;100.00
54465;BME280;40374;49.480;20.016;2023-04-23T03:31:07;94753.09;;;1.52;100.00
54465;BME280;40374;49.480;20.016;2023-04-23T03:33:36;94757.69;;;1.45;100.00
54465;BME280;40374;49.480;20.016;2023-04-23T03:36:04;94738.66;;;1.36;100.00
54465;BME280;40374;49.480;20.016;2023-04-23T03:38:37;94737.31;;;1.45;100.00
54465;BME280;40374;49.480;20.016;2023-04-23T03:41:18;94758.41;;;1.52;100.00
54465;BME280;40374;49.480;20.016;2023-04-23T03:43:48;94750.09;;;1.48;100.00
54465;BME280;40374;49.480;20.016;2023-04-23T03:46:30;94760.13;;;1.46;100.00
54465;BME280;40374;49.480;20.016;2023-04-23T03:49:00;94767.75;;;1.54;100.00
54465;BME280;40374;49.480;20.016;2023-04-23T03:51:31;94761.75;;;1.47;100.00
54465;BME280;40374;49.480;20.016;2023-04-23T03:54:01;94772.00;;;1.55;100.00
54465;BME280;40374;49.480;20.016;2023-04-23T03:56:42;94774.19;;;1.58;100.00
54465;BME280;40374;49.480;20.016;2023-04-23T03:59:14;94772.00;;;1.55;100.00
54465;BME280;40374;49.480;20.016;2023-04-23T04:01:47;94776.28;;;1.56;100.00
54465;BME280;40374;49.480;20.016;2023-04-23T04:04:15;94767.84;;;1.48;100.00
54465;BME280;40374;49.480;20.016;2023-04-23T04:06:44;94759.09;;;1.47;100.00
54465;BME280;40374;49.480;20.016;2023-04-23T04:09:12;94767.63;;;1.61;100.00
54465;BME280;40374;49.480;20.016;2023-04-23T04:11:40;94778.59;;;1.65;100.00
54465;BME280;40374;49.480;20.016;2023-04-23T04:14:12;94778.47;;;1.71;100.00
54465;BME280;40374;49.480;20.016;2023-04-23T04:16:41;94768.78;;;1.65;100.00
54465;BME280;40374;49.480;20.016;2023-04-23T04:19:09;94760.63;;;1.67;100.00
54465;BME280;40374;49.480;20.016;2023-04-23T04:21:38;94774.56;;;1.74;100.00
54465;BME280;40374;49.480;20.016;2023-04-23T04:24:05;94760.38;;;1.80;100.00
54465;BME280;40374;49.480;20.016;2023-04-23T04:26:40;94750.34;;;1.82;100.00
54465;BME280;40374;49.480;20.016;2023-04-23T04:29:14;94772.38;;;1.94;100.00
54465;BME280;40374;49.480;20.016;2023-04-23T04:32:54;94776.78;;;2.00;100.00
54465;BME280;40374;49.480;20.016;2023-04-23T04:35:46;94784.97;;;2.11;100.00
54465;BME280;40374;49.480;20.016;2023-04-23T04:38:37;94770.19;;;2.15;100.00
54465;BME280;40374;49.480;20.016;2023-04-23T04:42:02;94776.97;;;2.46;100.00
54465;BME280;40374;49.480;20.016;2023-04-23T04:49:20;94785.03;;;2.63;100.00
54465;BME280;40374;49.480;20.016;2023-04-23T04:57:26;94775.28;;;2.80;100.00
54465;BME280;40374;49.480;20.016;2023-04-23T05:01:08;94769.22;;;2.97;100.00
54465;BME280;40374;49.480;20.016;2023-04-23T05:09:26;94757.22;;;3.40;100.00
54465;BME280;40374;49.480;20.016;2023-04-23T05:17:07;94753.88;;;3.61;100.00
54465;BME280;40374;49.480;20.016;2023-04-23T05:20:35;94768.16;;;3.89;100.00
54465;BME280;40374;49.480;20.016;2023-04-23T05:24:42;94758.69;;;4.15;100.00
54465;BME280;40374;49.480;20.016;2023-04-23T05:32:37;94756.97;;;4.65;100.00
54465;BME280;40374;49.480;20.016;2023-04-23T05:36:01;94755.00;;;4.77;100.00
54465;BME280;40374;49.480;20.016;2023-04-23T05:38:32;94759.53;;;5.04;100.00
54465;BME280;40374;49.480;20.016;2023-04-23T05:41:35;94760.53;;;5.20;100.00
54465;BME280;40374;49.480;20.016;2023-04-23T05:44:03;94755.34;;;5.35;100.00
54465;BME280;40374;49.480;20.016;2023-04-23T05:46:32;94760.94;;;5.61;100.00
54465;BME280;40374;49.480;20.016;2023-04-23T05:49:10;94753.34;;;5.80;100.00
54465;BME280;40374;49.480;20.016;2023-04-23T05:51:44;94747.63;;;5.98;100.00
54465;BME280;40374;49.480;20.016;2023-04-23T05:54:42;94759.56;;;6.23;100.00
54465;BME280;40374;49.480;20.016;2023-04-23T05:57:31;94746.88;;;6.45;100.00
54465;BME280;40374;49.480;20.016;2023-04-23T06:00:17;94750.75;;;6.70;100.00
54465;BME280;40374;49.480;20.016;2023-04-23T06:02:46;94754.31;;;6.91;100.00
54465;BME280;40374;49.480;20.016;2023-04-23T06:05:15;94753.81;;;7.09;100.00
54465;BME280;40374;49.480;20.016;2023-04-23T06:07:46;94736.75;;;7.21;100.00
54465;BME280;40374;49.480;20.016;2023-04-23T06:10:16;94762.25;;;7.54;100.00
54465;BME280;40374;49.480;20.016;2023-04-23T06:12:46;94757.19;;;7.73;100.00
54465;BME280;40374;49.480;20.016;2023-04-23T06:15:14;94741.38;;;7.71;100.00
54465;BME280;40374;49.480;20.016;2023-04-23T06:17:42;94742.97;;;7.93;100.00
54465;BME280;40374;49.480;20.016;2023-04-23T06:20:10;94742.97;;;8.03;100.00
54465;BME280;40374;49.480;20.016;2023-04-23T06:22:38;94748.59;;;8.32;100.00
54465;BME280;40374;49.480;20.016;2023-04-23T06:25:09;94733.31;;;8.48;100.00
54465;BME280;40374;49.480;20.016;2023-04-23T06:27:41;94720.41;;;8.66;100.00
54465;BME280;40374;49.480;20.016;2023-04-23T06:30:32;94745.44;;;9.06;100.00
54465;BME280;40374;49.480;20.016;2023-04-23T06:33:10;94740.31;;;9.14;100.00
54465;BME280;40374;49.480;20.016;2023-04-23T06:36:13;94731.88;;;9.37;100.00
54465;BME280;40374;49.480;20.016;2023-04-23T06:39:38;94721.81;;;9.58;100.00
54465;BME280;40374;49.480;20.016;2023-04-23T06:42:53;94718.94;;;9.83;100.00
54465;BME280;40374;49.480;20.016;2023-04-23T06:46:22;94743.88;;;10.23;100.00
54465;BME280;40374;49.480;20.016;2023-04-23T06:49:32;94732.66;;;10.45;100.00
54465;BME280;40374;49.480;20.016;2023-04-23T06:52:32;94704.63;;;10.51;100.00
54465;BME280;40374;49.480;20.016;2023-04-23T06:55:01;94699.38;;;10.65;100.00
54465;BME280;40374;49.480;20.016;2023-04-23T06:57:31;94713.03;;;10.93;100.00
54465;BME280;40374;49.480;20.016;2023-04-23T07:00:22;94719.63;;;11.25;100.00
54465;BME280;40374;49.480;20.016;2023-04-23T07:03:17;94690.75;;;11.30;100.00
54465;BME280;40374;49.480;20.016;2023-04-23T07:06:12;94693.72;;;11.67;100.00
54465;BME280;40374;49.480;20.016;2023-04-23T07:08:51;94698.88;;;12.01;100.00
54465;BME280;40374;49.480;20.016;2023-04-23T07:11:22;94691.94;;;12.14;100.00
54465;BME280;40374;49.480;20.016;2023-04-23T07:13:50;94704.75;;;12.36;90.61
54465;BME280;40374;49.480;20.016;2023-04-23T07:16:22;94709.16;;;12.46;84.14
54465;BME280;40374;49.480;20.016;2023-04-23T07:18:51;94704.47;;;12.51;86.04
54465;BME280;40374;49.480;20.016;2023-04-23T07:21:22;94688.59;;;12.64;84.88
54465;BME280;40374;49.480;20.016;2023-04-23T07:23:50;94713.47;;;13.16;91.15
54465;BME280;40374;49.480;20.016;2023-04-23T07:26:18;94679.16;;;13.30;88.81
54465;BME280;40374;49.480;20.016;2023-04-23T07:28:46;94698.88;;;13.67;81.93
54465;BME280;40374;49.480;20.016;2023-04-23T07:31:18;94695.38;;;13.89;78.09
54465;BME280;40374;49.480;20.016;2023-04-23T07:33:47;94683.28;;;14.09;71.98
54465;BME280;40374;49.480;20.016;2023-04-23T07:36:16;94690.75;;;14.35;71.06
54465;BME280;40374;49.480;20.016;2023-04-23T07:38:43;94695.81;;;14.59;70.21
54465;BME280;40374;49.480;20.016;2023-04-23T07:41:12;94679.69;;;14.76;69.88
54465;BME280;40374;49.480;20.016;2023-04-23T07:43:52;94680.56;;;15.12;61.56
54465;BME280;40374;49.480;20.016;2023-04-23T07:46:50;94689.03;;;15.28;58.52
54465;BME280;40374;49.480;20.016;2023-04-23T07:49:21;94666.53;;;15.10;61.35
54465;BME280;40374;49.480;20.016;2023-04-23T07:56:32;94657.53;;;15.67;59.41
54465;BME280;40374;49.480;20.016;2023-04-23T08:00:20;94670.72;;;16.20;62.33
54465;BME280;40374;49.480;20.016;2023-04-23T08:03:30;94669.13;;;16.75;61.86
54465;BME280;40374;49.480;20.016;2023-04-23T08:06:35;94640.25;;;17.00;59.69
54465;BME280;40374;49.480;20.016;2023-04-23T08:09:25;94647.75;;;17.33;57.58
54465;BME280;40374;49.480;20.016;2023-04-23T08:13:02;94655.53;;;17.64;54.50
54465;BME280;40374;49.480;20.016;2023-04-23T08:15:52;94648.50;;;17.84;54.47
54465;BME280;40374;49.480;20.016;2023-04-23T08:18:55;94647.72;;;18.17;52.91
54465;BME280;40374;49.480;20.016;2023-04-23T08:22:15;94652.81;;;18.52;54.86
54465;BME280;40374;49.480;20.016;2023-04-23T08:24:59;94635.34;;;18.78;52.46
54465;BME280;40374;49.480;20.016;2023-04-23T08:28:01;94619.25;;;18.85;49.76
54465;BME280;40374;49.480;20.016;2023-04-23T08:34:03;94611.41;;;19.08;51.46
54465;BME280;40374;49.480;20.016;2023-04-23T08:37:31;94628.00;;;19.68;52.72
54465;BME280;40374;49.480;20.016;2023-04-23T08:40:32;94596.72;;;20.06;52.10
54465;BME280;40374;49.480;20.016;2023-04-23T08:43:59;94609.59;;;20.65;50.31
54465;BME280;40374;49.480;20.016;2023-04-23T08:47:06;94603.59;;;20.76;45.32
54465;BME280;40374;49.480;20.016;2023-04-23T08:49:59;94607.03;;;20.73;45.11
54465;BME280;40374;49.480;20.016;2023-04-23T08:52:42;94602.56;;;21.16;47.83
54465;BME280;40374;49.480;20.016;2023-04-23T08:55:24;94595.69;;;21.77;47.82
54465;BME280;40374;49.480;20.016;2023-04-23T08:58:42;94588.34;;;21.81;38.89
54465;BME280;40374;49.480;20.016;2023-04-23T09:01:33;94576.63;;;21.61;39.37
54465;BME280;40374;49.480;20.016;2023-04-23T09:04:24;94582.66;;;21.70;38.69
54465;BME280;40374;49.480;20.016;2023-04-23T09:07:06;94587.91;;;21.79;39.04
54465;BME280;40374;49.480;20.016;2023-04-23T09:10:02;94586.91;;;22.49;42.16
54465;BME280;40374;49.480;20.016;2023-04-23T09:12:47;94577.06;;;23.17;41.10
54465;BME280;40374;49.480;20.016;2023-04-23T09:15:46;94574.78;;;23.80;39.25
54465;BME280;40374;49.480;20.016;2023-04-23T09:19:09;94570.00;;;24.48;37.72
54465;BME280;40374;49.480;20.016;2023-04-23T09:22:47;94564.19;;;25.01;38.28
54465;BME280;40374;49.480;20.016;2023-04-23T09:25:36;94565.72;;;24.95;34.08
54465;BME280;40374;49.480;20.016;2023-04-23T09:28:38;94556.50;;;25.25;37.11
54465;BME280;40374;49.480;20.016;2023-04-23T09:31:22;94558.06;;;24.70;34.25
54465;BME280;40374;49.480;20.016;2023-04-23T09:33:51;94551.34;;;23.89;33.22
54465;BME280;40374;49.480;20.016;2023-04-23T09:36:47;94559.25;;;23.64;32.51
54465;BME280;40374;49.480;20.016;2023-04-23T09:39:42;94540.34;;;22.26;33.78
54465;BME280;40374;49.480;20.016;2023-04-23T09:42:14;94526.69;;;23.02;36.63
54465;BME280;40374;49.480;20.016;2023-04-23T09:45:15;94540.19;;;24.50;36.21
54465;BME280;40374;49.480;20.016;2023-04-23T09:50:42;94521.16;;;25.34;31.66
54465;BME280;40374;49.480;20.016;2023-04-23T09:53:46;94514.75;;;25.92;33.50
54465;BME280;40374;49.480;20.016;2023-04-23T09:56:43;94521.47;;;26.06;28.85
54465;BME280;40374;49.480;20.016;2023-04-23T09:59:42;94519.72;;;25.62;28.25
54465;BME280;40374;49.480;20.016;2023-04-23T10:03:06;94520.56;;;25.73;31.48
54465;BME280;40374;49.480;20.016;2023-04-23T10:05:40;94509.72;;;26.45;31.06
54465;BME280;40374;49.480;20.016;2023-04-23T10:08:47;94494.34;;;26.98;29.14
54465;BME280;40374;49.480;20.016;2023-04-23T10:16:17;94505.19;;;28.50;27.54
54465;BME280;40374;49.480;20.016;2023-04-23T10:19:20;94479.25;;;28.26;26.59
54465;BME280;40374;49.480;20.016;2023-04-23T10:23:20;94478.84;;;27.50;27.04
54465;BME280;40374;49.480;20.016;2023-04-23T10:27:21;94505.00;;;26.70;27.13
54465;BME280;40374;49.480;20.016;2023-04-23T10:30:32;94505.72;;;26.06;27.86
54465;BME280;40374;49.480;20.016;2023-04-23T10:34:09;94467.78;;;25.57;29.67
54465;BME280;40374;49.480;20.016;2023-04-23T10:38:09;94485.22;;;27.19;27.47
54465;BME280;40374;49.480;20.016;2023-04-23T10:42:21;94452.19;;;26.90;27.52
54465;BME280;40374;49.480;20.016;2023-04-23T10:45:23;94475.97;;;28.46;26.72
54465;BME280;40374;49.480;20.016;2023-04-23T10:48:04;94480.97;;;29.10;25.82
54465;BME280;40374;49.480;20.016;2023-04-23T10:58:05;94486.84;;;26.48;28.61
54465;BME280;40374;49.480;20.016;2023-04-23T11:00:59;94467.19;;;26.82;27.33
54465;BME280;40374;49.480;20.016;2023-04-23T11:04:54;94466.00;;;26.58;26.92
54465;BME280;40374;49.480;20.016;2023-04-23T11:08:14;94462.06;;;26.77;27.10
54465;BME280;40374;49.480;20.016;2023-04-23T11:11:12;94479.34;;;26.02;27.44
54465;BME280;40374;49.480;20.016;2023-04-23T11:13:51;94464.63;;;25.55;29.00
54465;BME280;40374;49.480;20.016;2023-04-23T11:16:24;94479.31;;;25.03;29.30
54465;BME280;40374;49.480;20.016;2023-04-23T11:25:28;94472.59;;;27.39;26.36
54465;BME280;40374;49.480;20.016;2023-04-23T11:27:57;94467.63;;;28.53;25.88
54465;BME280;40374;49.480;20.016;2023-04-23T11:30:42;94457.84;;;28.38;24.30
54465;BME280;40374;49.480;20.016;2023-04-23T11:33:18;94450.19;;;29.39;25.03
54465;BME280;40374;49.480;20.016;2023-04-23T11:35:49;94447.56;;;30.71;25.54
54465;BME280;40374;49.480;20.016;2023-04-23T11:38:19;94426.56;;;31.94;25.83
54465;BME280;40374;49.480;20.016;2023-04-23T11:40:54;94439.06;;;33.04;25.61
54465;BME280;40374;49.480;20.016;2023-04-23T11:43:33;94433.31;;;33.11;21.90
54465;BME280;40374;49.480;20.016;2023-04-23T11:46:05;94443.75;;;32.09;22.33
54465;BME280;40374;49.480;20.016;2023-04-23T11:48:39;94432.56;;;31.92;23.81
54465;BME280;40374;49.480;20.016;2023-04-23T11:51:25;94424.75;;;30.84;22.28
54465;BME280;40374;49.480;20.016;2023-04-23T11:53:56;94446.38;;;28.88;25.46
54465;BME280;40374;49.480;20.016;2023-04-23T11:56:31;94429.41;;;28.37;27.33
54465;BME280;40374;49.480;20.016;2023-04-23T11:59:08;94441.38;;;28.72;25.42
54465;BME280;40374;49.480;20.016;2023-04-23T12:01:41;94424.47;;;29.04;26.02
54465;BME280;40374;49.480;20.016;2023-04-23T12:04:30;94428.91;;;29.32;24.47
54465;BME280;40374;49.480;20.016;2023-04-23T12:07:03;94423.84;;;29.27;24.69
54465;BME280;40374;49.480;20.016;2023-04-23T12:09:49;94425.25;;;29.01;23.82
54465;BME280;40374;49.480;20.016;2023-04-23T12:12:19;94395.25;;;29.34;23.86
54465;BME280;40374;49.480;20.016;2023-04-23T12:15:03;94415.38;;;29.69;24.57
54465;BME280;40374;49.480;20.016;2023-04-23T12:17:37;94418.19;;;29.96;24.91
54465;BME280;40374;49.480;20.016;2023-04-23T12:20:09;94414.13;;;30.04;24.66
54465;BME280;40374;49.480;20.016;2023-04-23T12:22:43;94422.38;;;29.16;24.10
54465;BME280;40374;49.480;20.016;2023-04-23T12:25:14;94418.31;;;28.86;24.61
54465;BME280;40374;49.480;20.016;2023-04-23T12:31:49;94406.31;;;29.95;23.93
54465;BME280;40374;49.480;20.016;2023-04-23T12:39:23;94408.19;;;29.75;23.06
54465;BME280;40374;49.480;20.016;2023-04-23T12:41:53;94408.66;;;30.51;25.20
54465;BME280;40374;49.480;20.016;2023-04-23T12:48:57;94389.31;;;31.71;22.60
54465;BME280;40374;49.480;20.016;2023-04-23T12:56:30;94395.78;;;31.48;21.71
54465;BME280;40374;49.480;20.016;2023-04-23T13:05:18;94388.88;;;32.75;22.27
54465;BME280;40374;49.480;20.016;2023-04-23T13:09:41;94366.09;;;33.09;22.30
54465;BME280;40374;49.480;20.016;2023-04-23T13:20:43;94373.25;;;31.79;22.72
54465;BME280;40374;49.480;20.016;2023-04-23T14:40:35;94317.94;;;29.74;22.17
54465;BME280;40374;49.480;20.016;2023-04-23T14:45:01;94319.34;;;29.28;22.15
54465;BME280;40374;49.480;20.016;2023-04-23T15:11:12;94285.97;;;26.46;24.55
54465;BME280;40374;49.480;20.016;2023-04-23T15:31:55;94287.97;;;25.88;26.36
54465;BME280;40374;49.480;20.016;2023-04-23T15:35:42;94293.47;;;26.24;26.52
54465;BME280;40374;49.480;20.016;2023-04-23T15:39:11;94276.19;;;25.70;26.90
54465;BME280;40374;49.480;20.016;2023-04-23T15:43:00;94247.47;;;23.67;28.72
54465;BME280;40374;49.480;20.016;2023-04-23T15:46:18;94300.88;;;22.04;31.01
54465;BME280;40374;49.480;20.016;2023-04-23T15:52:51;94282.31;;;19.84;34.19
54465;BME280;40374;49.480;20.016;2023-04-23T15:56:07;94273.69;;;19.19;34.68
54465;BME280;40374;49.480;20.016;2023-04-23T15:59:31;94285.81;;;19.05;35.38
54465;BME280;40374;49.480;20.016;2023-04-23T16:02:27;94290.34;;;18.85;35.10
54465;BME280;40374;49.480;20.016;2023-04-23T16:04:59;94298.66;;;18.77;35.61
54465;BME280;40374;49.480;20.016;2023-04-23T16:07:27;94272.78;;;18.55;35.96
54465;BME280;40374;49.480;20.016;2023-04-23T16:10:25;94287.56;;;18.70;36.62
54465;BME280;40374;49.480;20.016;2023-04-23T16:13:09;94286.53;;;19.02;36.24
54465;BME280;40374;49.480;20.016;2023-04-23T16:15:59;94264.81;;;18.90;35.73
54465;BME280;40374;49.480;20.016;2023-04-23T16:18:35;94279.66;;;19.09;35.38
54465;BME280;40374;49.480;20.016;2023-04-23T16:21:05;94278.63;;;19.13;35.75
54465;BME280;40374;49.480;20.016;2023-04-23T16:23:43;94250.66;;;19.00;35.87
54465;BME280;40374;49.480;20.016;2023-04-23T16:26:39;94273.69;;;19.19;35.70
54465;BME280;40374;49.480;20.016;2023-04-23T16:30:24;94234.94;;;18.65;36.08
54465;BME280;40374;49.480;20.016;2023-04-23T16:33:07;94251.91;;;18.75;35.70
54465;BME280;40374;49.480;20.016;2023-04-23T16:39:24;94249.13;;;18.87;35.97
54465;BME280;40374;49.480;20.016;2023-04-23T16:41:55;94267.09;;;18.88;35.95
54465;BME280;40374;49.480;20.016;2023-04-23T16:44:23;94262.34;;;18.73;35.56
54465;BME280;40374;49.480;20.016;2023-04-23T16:46:52;94275.28;;;18.76;35.92
54465;BME280;40374;49.480;20.016;2023-04-23T16:49:20;94270.97;;;18.75;35.55
54465;BME280;40374;49.480;20.016;2023-04-23T16:51:49;94244.31;;;18.52;36.41
54465;BME280;40374;49.480;20.016;2023-04-23T16:54:17;94251.00;;;18.55;36.63
54465;BME280;40374;49.480;20.016;2023-04-23T16:56:48;94265.88;;;18.45;37.05
54465;BME280;40374;49.480;20.016;2023-04-23T16:59:17;94257.25;;;18.27;37.03
54465;BME280;40374;49.480;20.016;2023-04-23T17:01:46;94272.56;;;18.19;37.18
54465;BME280;40374;49.480;20.016;2023-04-23T17:04:14;94254.91;;;18.01;37.52
54465;BME280;40374;49.480;20.016;2023-04-23T17:06:43;94273.75;;;17.81;38.19
54465;BME280;40374;49.480;20.016;2023-04-23T17:09:11;94270.13;;;17.65;39.25
54465;BME280;40374;49.480;20.016;2023-04-23T17:11:40;94266.53;;;17.49;40.18
54465;BME280;40374;49.480;20.016;2023-04-23T17:14:08;94253.81;;;17.28;40.41
54465;BME280;40374;49.480;20.016;2023-04-23T17:16:38;94276.94;;;17.34;40.81
54465;BME280;40374;49.480;20.016;2023-04-23T17:19:06;94271.25;;;17.02;41.22
54465;BME280;40374;49.480;20.016;2023-04-23T17:21:35;94246.59;;;16.62;41.93
54465;BME280;40374;49.480;20.016;2023-04-23T17:24:03;94266.84;;;16.64;42.08
54465;BME280;40374;49.480;20.016;2023-04-23T17:26:32;94270.09;;;16.58;42.23
54465;BME280;40374;49.480;20.016;2023-04-23T17:29:00;94259.22;;;16.24;42.13
54465;BME280;40374;49.480;20.016;2023-04-23T17:31:31;94273.78;;;16.20;42.88
54465;BME280;40374;49.480;20.016;2023-04-23T17:34:02;94269.09;;;16.08;43.38
54465;BME280;40374;49.480;20.016;2023-04-23T17:36:31;94273.94;;;16.02;44.69
54465;BME280;40374;49.480;20.016;2023-04-23T17:39:01;94261.38;;;15.68;46.13
54465;BME280;40374;49.480;20.016;2023-04-23T17:41:30;94284.81;;;15.43;47.80
54465;BME280;40374;49.480;20.016;2023-04-23T17:43:58;94305.00;;;15.25;48.17
54465;BME280;40374;49.480;20.016;2023-04-23T17:46:26;94279.13;;;14.97;49.64
54465;BME280;40374;49.480;20.016;2023-04-23T17:48:54;94291.59;;;14.81;49.35
54465;BME280;40374;49.480;20.016;2023-04-23T17:51:23;94304.03;;;14.65;49.77
54465;BME280;40374;49.480;20.016;2023-04-23T17:53:51;94303.88;;;14.44;50.14
54465;BME280;40374;49.480;20.016;2023-04-23T17:56:19;94302.13;;;14.13;50.81
54465;BME280;40374;49.480;20.016;2023-04-23T17:58:48;94299.75;;;14.02;51.51
54465;BME280;40374;49.480;20.016;2023-04-23T18:01:16;94307.53;;;13.95;52.22
54465;BME280;40374;49.480;20.016;2023-04-23T18:03:44;94312.59;;;13.71;53.56
54465;BME280;40374;49.480;20.016;2023-04-23T18:06:15;94298.41;;;13.48;54.81
54465;BME280;40374;49.480;20.016;2023-04-23T18:08:48;94312.72;;;13.48;56.17
54465;BME280;40374;49.480;20.016;2023-04-23T18:11:19;94316.25;;;13.26;56.76
54465;BME280;40374;49.480;20.016;2023-04-23T18:13:47;94331.75;;;13.12;58.50
54465;BME280;40374;49.480;20.016;2023-04-23T18:16:19;94319.66;;;13.00;58.92
54465;BME280;40374;49.480;20.016;2023-04-23T18:18:48;94336.75;;;12.87;61.88
54465;BME280;40374;49.480;20.016;2023-04-23T18:21:16;94325.81;;;12.70;62.91
54465;BME280;40374;49.480;20.016;2023-04-23T18:23:45;94332.84;;;12.71;62.95
54465;BME280;40374;49.480;20.016;2023-04-23T18:26:13;94318.03;;;12.37;64.22
54465;BME280;40374;49.480;20.016;2023-04-23T18:28:41;94340.19;;;12.34;67.05
54465;BME280;40374;49.480;20.016;2023-04-23T18:31:09;94351.59;;;12.31;68.54
54465;BME280;40374;49.480;20.016;2023-04-23T18:33:46;94334.03;;;11.97;74.71
54465;BME280;40374;49.480;20.016;2023-04-23T18:36:23;94342.31;;;11.87;87.00